Terminal Aerodrome Forecast
Issued by NWS

Home | Current Version | Previous Version | Text Only | Print | Product List | Glossary On
Versions: 1 2 3 4 5 6 7 8 9 10 11 12 13 14 15 16 17 18 19 20 21 22 23 24 25 26 27 28 29 30 31 32 33 34 35 36 37 38 39 40 41 42 43 44 45 46 47 48 49 50
000
FTUS41 KCTP 301739
TAFUNV
TAF
KUNV 301739Z 3018/3118 22011KT P6SM BKN030 OVC080
     FM302000 23009KT P6SM VCSH BKN035 BKN070
     FM302300 26006KT P6SM SCT050
     FM310800 VRB03KT 5SM BR SCT050
     FM311100 24003KT 6SM BR BKN050
     FM311200 25005KT P6SM BKN250=

USA.gov is the U.S. government's official web portal to all federal, state and local government web resources and services.